createdAt,value
2023-01-03T00:00:01.257Z,7
2023-01-03T00:01:01.864Z,7
2023-01-03T00:02:01.487Z,7
2023-01-03T00:03:02.024Z,7.1
2023-01-03T00:04:01.662Z,7.1
2023-01-03T00:05:01.342Z,7
2023-01-03T00:06:01.857Z,6.9
2023-01-03T00:07:01.498Z,6.8
2023-01-03T00:08:01.034Z,6.8
2023-01-03T00:09:01.637Z,6.7
2023-01-03T00:10:01.236Z,6.7
2023-01-03T00:11:01.842Z,6.7
2023-01-03T00:12:01.467Z,6.7
2023-01-03T00:13:02.007Z,6.7
2023-01-03T00:14:01.598Z,6.7
2023-01-03T00:15:01.189Z,6.6
2023-01-03T00:16:01.765Z,6.7
2023-01-03T00:17:01.452Z,6.6
2023-01-03T00:18:01.955Z,6.6
2023-01-03T00:19:01.551Z,6.5
2023-01-03T00:20:01.139Z,6.4
2023-01-03T00:21:01.708Z,6.4
2023-01-03T00:22:01.314Z,6.4
2023-01-03T00:23:01.875Z,6.3
2023-01-03T00:24:01.464Z,6.3
2023-01-03T00:25:01.115Z,6.3
2023-01-03T00:26:01.651Z,6.3
2023-01-03T00:27:01.245Z,6.2
2023-01-03T00:28:01.815Z,6.2
2023-01-03T00:29:01.410Z,6.2
2023-01-03T00:30:02.020Z,6.1
2023-01-03T00:31:01.661Z,6
2023-01-03T00:32:01.233Z,6
2023-01-03T00:33:01.831Z,6
2023-01-03T00:34:01.422Z,6
2023-01-03T00:35:05.220Z,6
2023-01-03T00:36:01.531Z,6
2023-01-03T00:37:01.233Z,6
2023-01-03T00:38:01.723Z,6
2023-01-03T00:39:01.321Z,5.9
2023-01-03T00:40:01.892Z,6.1
2023-01-03T00:41:01.598Z,6.1
2023-01-03T00:42:01.075Z,6.1
2023-01-03T00:43:01.671Z,6.1
2023-01-03T00:44:01.262Z,6.2
2023-01-03T00:45:01.836Z,6.3
2023-01-03T00:46:01.482Z,6.3
2023-01-03T00:47:02.020Z,6.2
2023-01-03T00:48:01.630Z,6.2
2023-01-03T00:49:01.222Z,6.2
2023-01-03T00:50:01.806Z,6.2
2023-01-03T00:51:01.400Z,6.3
2023-01-03T00:52:01.971Z,6.3
2023-01-03T00:53:01.579Z,6.3
2023-01-03T00:54:01.187Z,6.2
2023-01-03T00:55:01.745Z,6.2
2023-01-03T00:56:01.334Z,6.1
2023-01-03T00:57:01.947Z,6.2
2023-01-03T00:58:01.533Z,6.3
2023-01-03T00:59:01.159Z,6.3
2023-01-03T01:00:01.718Z,6.2
2023-01-03T01:01:01.384Z,6.3
2023-01-03T01:02:02.009Z,6.2
2023-01-03T01:03:01.714Z,6.2
2023-01-03T01:04:01.210Z,6.1
2023-01-03T01:05:01.718Z,6.1
2023-01-03T01:06:01.307Z,6
2023-01-03T01:07:01.897Z,6
2023-01-03T01:08:01.506Z,6
2023-01-03T01:09:01.111Z,6
2023-01-03T01:10:01.647Z,6
2023-01-03T01:11:01.238Z,6
2023-01-03T01:12:01.818Z,6.1
2023-01-03T01:13:01.428Z,6.1
2023-01-03T01:14:02.016Z,6.2
2023-01-03T01:15:01.615Z,6.2
2023-01-03T01:16:01.299Z,6.2
2023-01-03T01:17:01.821Z,6.2
2023-01-03T01:18:01.413Z,6.1
2023-01-03T01:19:02.006Z,6.1
2023-01-03T01:20:01.605Z,6.2
2023-01-03T01:21:01.191Z,6.2
2023-01-03T01:22:01.795Z,6.2
2023-01-03T01:23:01.392Z,6.3
2023-01-03T01:24:01.981Z,6.3
2023-01-03T01:25:01.597Z,6.3
2023-01-03T01:26:01.189Z,6.4
2023-01-03T01:27:01.759Z,6.4
2023-01-03T01:28:01.359Z,6.4
2023-01-03T01:29:01.954Z,6.5
2023-01-03T01:30:01.586Z,6.5
2023-01-03T01:31:01.228Z,6.5
2023-01-03T01:32:01.819Z,6.4
2023-01-03T01:33:01.361Z,6.4
2023-01-03T01:34:01.949Z,6.4
2023-01-03T01:35:01.569Z,6.4
2023-01-03T01:36:01.124Z,6.3
2023-01-03T01:37:01.811Z,6.3
2023-01-03T01:38:01.353Z,6.4
2023-01-03T01:39:01.947Z,6.4
2023-01-03T01:40:01.605Z,6.4
2023-01-03T01:41:01.120Z,6.4
2023-01-03T01:42:01.750Z,6.5
2023-01-03T01:43:01.352Z,6.5
2023-01-03T01:44:01.940Z,6.5
2023-01-03T01:45:01.666Z,6.5
2023-01-03T01:46:01.123Z,6.5
2023-01-03T01:47:01.681Z,6.5
2023-01-03T01:48:01.280Z,6.4
2023-01-03T01:49:01.857Z,6.5
2023-01-03T01:50:01.490Z,6.4
2023-01-03T01:51:01.038Z,6.4
2023-01-03T01:52:01.615Z,6.5
2023-01-03T01:53:01.209Z,6.4
2023-01-03T01:54:01.794Z,6.4
2023-01-03T01:55:01.399Z,6.4
2023-01-03T01:56:01.968Z,6.4
2023-01-03T01:57:01.556Z,6.4
2023-01-03T01:58:01.157Z,6.4
2023-01-03T01:59:01.730Z,6.3
2023-01-03T02:00:01.317Z,6.3
2023-01-03T02:01:01.950Z,6.3
2023-01-03T02:02:01.684Z,6.2
2023-01-03T02:03:01.222Z,6.2
2023-01-03T02:04:01.727Z,6.2
2023-01-03T02:05:01.339Z,6.1
2023-01-03T02:06:01.893Z,6.2
2023-01-03T02:07:01.505Z,6.2
2023-01-03T02:08:01.058Z,6.3
2023-01-03T02:09:01.654Z,6.3
2023-01-03T02:10:01.253Z,6.3
2023-01-03T02:11:01.844Z,6.3
2023-01-03T02:12:01.465Z,6.3
2023-01-03T02:13:02.020Z,6.3
2023-01-03T02:14:01.618Z,6.3
2023-01-03T02:15:01.210Z,6.3
2023-01-03T02:16:01.896Z,6.4
2023-01-03T02:17:01.490Z,6.3
2023-01-03T02:18:02.032Z,6.3
2023-01-03T02:19:01.639Z,6.3
2023-01-03T02:20:01.237Z,6.3
2023-01-03T02:21:01.839Z,6.3
2023-01-03T02:22:01.441Z,6.4
2023-01-03T02:23:02.034Z,6.3
2023-01-03T02:24:01.619Z,6.4
2023-01-03T02:25:01.219Z,6.4
2023-01-03T02:26:01.805Z,6.5
2023-01-03T02:27:01.393Z,6.5
2023-01-03T02:28:01.983Z,6.5
2023-01-03T02:29:01.571Z,6.4
2023-01-03T02:30:01.159Z,6.4
2023-01-03T02:31:01.817Z,6.5
2023-01-03T02:32:01.398Z,6.5
2023-01-03T02:33:02.113Z,6.4
2023-01-03T02:34:01.613Z,6.3
2023-01-03T02:35:01.198Z,6.4
2023-01-03T02:36:01.814Z,6.3
2023-01-03T02:37:01.403Z,6.2
2023-01-03T02:38:01.110Z,6.1
2023-01-03T02:39:01.576Z,6.2
2023-01-03T02:40:01.166Z,6.1
2023-01-03T02:41:01.828Z,6.1
2023-01-03T02:42:01.397Z,6.1
2023-01-03T02:43:02.116Z,6.1
2023-01-03T02:44:01.798Z,6
2023-01-03T02:45:01.234Z,6
2023-01-03T02:46:01.903Z,6
2023-01-03T02:47:01.533Z,6.1
2023-01-03T02:48:02.058Z,6.1
2023-01-03T02:49:01.997Z,6.1
2023-01-03T02:50:01.275Z,6
2023-01-03T02:51:01.858Z,6.1
2023-01-03T02:52:01.453Z,6.1
2023-01-03T02:53:02.073Z,6.2
2023-01-03T02:54:01.667Z,6.2
2023-01-03T02:55:01.262Z,6.2
2023-01-03T02:56:01.837Z,6.2
2023-01-03T02:57:01.425Z,6.2
2023-01-03T02:58:02.044Z,6.2
2023-01-03T02:59:01.655Z,6.2
2023-01-03T03:00:01.245Z,6.2
2023-01-03T03:01:01.823Z,6.3
2023-01-03T03:02:01.536Z,6.3
2023-01-03T03:03:02.137Z,6.3
2023-01-03T03:04:01.857Z,6.3
2023-01-03T03:05:01.242Z,6.3
2023-01-03T03:06:01.811Z,6.2
2023-01-03T03:07:01.412Z,6.2
2023-01-03T03:08:01.986Z,6.2
2023-01-03T03:09:01.602Z,6.2
2023-01-03T03:10:01.205Z,6.2
2023-01-03T03:11:01.791Z,6.2
2023-01-03T03:12:01.381Z,6.2
2023-01-03T03:13:01.964Z,6.2
2023-01-03T03:14:01.569Z,6.2
2023-01-03T03:15:01.157Z,6.3
2023-01-03T03:16:01.825Z,6.3
2023-01-03T03:17:01.378Z,6.2
2023-01-03T03:18:01.986Z,6.3
2023-01-03T03:19:01.632Z,6.3
2023-01-03T03:20:06.146Z,6.3
2023-01-03T03:21:01.804Z,6.2
2023-01-03T03:22:01.358Z,6.2
2023-01-03T03:23:01.932Z,6.2
2023-01-03T03:24:01.605Z,6.2
2023-01-03T03:25:01.153Z,6.1
2023-01-03T03:26:01.740Z,6
2023-01-03T03:27:01.328Z,5.9
2023-01-03T03:28:01.912Z,5.9
2023-01-03T03:29:01.520Z,5.9
2023-01-03T03:30:01.083Z,5.8
2023-01-03T03:31:01.661Z,5.8
2023-01-03T03:32:01.273Z,5.7
2023-01-03T03:33:01.859Z,5.7
2023-01-03T03:34:01.465Z,5.7
2023-01-03T03:35:02.017Z,5.7
2023-01-03T03:36:01.621Z,5.6
2023-01-03T03:37:01.256Z,5.5
2023-01-03T03:38:01.903Z,5.6
2023-01-03T03:39:01.493Z,5.5
2023-01-03T03:40:01.049Z,5.5
2023-01-03T03:41:01.647Z,5.4
2023-01-03T03:42:01.238Z,5.4
2023-01-03T03:43:01.820Z,5.4
2023-01-03T03:44:01.433Z,5.3
2023-01-03T03:45:02.570Z,5.3
2023-01-03T03:46:01.389Z,5.2
2023-01-03T03:47:04.032Z,5.1
2023-01-03T03:48:01.545Z,5.1
2023-01-03T03:49:01.143Z,5.1
2023-01-03T03:50:01.726Z,5.1
2023-01-03T03:51:01.318Z,5.2
2023-01-03T03:52:01.912Z,5.1
2023-01-03T03:53:01.523Z,5.1
2023-01-03T03:54:01.079Z,5.1
2023-01-03T03:55:01.650Z,5.1
2023-01-03T03:56:01.237Z,5
2023-01-03T03:57:01.839Z,5
2023-01-03T03:58:01.427Z,5.1
2023-01-03T03:59:02.015Z,5.1
2023-01-03T04:00:01.649Z,5
2023-01-03T04:01:01.245Z,5
2023-01-03T04:02:01.984Z,5
2023-01-03T04:03:01.603Z,5
2023-01-03T04:04:01.108Z,4.9
2023-01-03T04:05:01.677Z,4.9
2023-01-03T04:06:01.272Z,4.9
2023-01-03T04:07:01.852Z,4.8
2023-01-03T04:08:01.439Z,4.8
2023-01-03T04:09:02.075Z,4.8
2023-01-03T04:10:01.689Z,4.8
2023-01-03T04:11:01.283Z,4.8
2023-01-03T04:12:01.832Z,4.8
2023-01-03T04:13:01.420Z,4.9
2023-01-03T04:14:01.996Z,4.8
2023-01-03T04:15:01.604Z,4.9
2023-01-03T04:16:01.263Z,4.8
2023-01-03T04:17:01.767Z,4.8
2023-01-03T04:18:01.367Z,4.8
2023-01-03T04:19:01.960Z,4.8
2023-01-03T04:20:01.580Z,4.9
2023-01-03T04:21:01.131Z,4.9
2023-01-03T04:22:01.713Z,4.8
2023-01-03T04:23:01.303Z,4.8
2023-01-03T04:24:01.879Z,4.7
2023-01-03T04:25:01.520Z,4.7
2023-01-03T04:26:01.072Z,4.7
2023-01-03T04:27:01.649Z,4.7
2023-01-03T04:28:01.247Z,4.7
2023-01-03T04:29:01.821Z,4.7
2023-01-03T04:30:01.446Z,4.7
2023-01-03T04:31:01.984Z,4.7
2023-01-03T04:32:01.702Z,4.8
2023-01-03T04:33:01.236Z,4.7
2023-01-03T04:34:01.803Z,4.7
2023-01-03T04:35:01.422Z,4.7
2023-01-03T04:36:02.004Z,4.7
2023-01-03T04:37:01.599Z,4.7
2023-01-03T04:38:01.185Z,4.7
2023-01-03T04:39:01.866Z,4.6
2023-01-03T04:40:01.464Z,4.7
2023-01-03T04:41:02.025Z,4.7
2023-01-03T04:42:01.725Z,4.6
2023-01-03T04:43:01.266Z,4.6
2023-01-03T04:44:01.938Z,4.6
2023-01-03T04:45:01.483Z,4.6
2023-01-03T04:46:01.154Z,4.6
2023-01-03T04:47:01.652Z,4.6
2023-01-03T04:48:01.272Z,4.5
2023-01-03T04:49:01.843Z,4.6
2023-01-03T04:50:01.475Z,4.5
2023-01-03T04:51:02.046Z,4.5
2023-01-03T04:52:01.639Z,4.6
2023-01-03T04:53:01.232Z,4.5
2023-01-03T04:54:01.830Z,4.5
2023-01-03T04:55:01.416Z,4.5
2023-01-03T04:56:01.989Z,4.5
2023-01-03T04:57:01.695Z,4.4
2023-01-03T04:58:01.246Z,4.5
2023-01-03T04:59:01.829Z,4.6
2023-01-03T05:00:01.453Z,4.5
2023-01-03T05:01:02.072Z,4.5
2023-01-03T05:02:01.881Z,4.5
2023-01-03T05:03:01.251Z,4.4
2023-01-03T05:04:01.949Z,4.5
2023-01-03T05:05:01.499Z,4.5
2023-01-03T05:06:01.071Z,4.5
2023-01-03T05:07:01.639Z,4.6
2023-01-03T05:08:01.274Z,4.6
2023-01-03T05:09:01.889Z,4.6
2023-01-03T05:10:01.480Z,4.6
2023-01-03T05:11:01.070Z,4.6
2023-01-03T05:12:01.665Z,4.7
2023-01-03T05:13:01.281Z,4.7
2023-01-03T05:14:01.871Z,4.8
2023-01-03T05:15:01.487Z,4.9
2023-01-03T05:16:02.052Z,5
2023-01-03T05:17:01.795Z,5
2023-01-03T05:18:01.289Z,5
2023-01-03T05:19:01.873Z,5.2
2023-01-03T05:20:01.533Z,5.1
2023-01-03T05:21:01.061Z,5.1
2023-01-03T05:22:01.644Z,5.1
2023-01-03T05:23:01.239Z,5.1
2023-01-03T05:24:01.812Z,5.1
2023-01-03T05:25:01.438Z,5.1
2023-01-03T05:26:01.975Z,5
2023-01-03T05:27:01.614Z,5
2023-01-03T05:28:01.217Z,5
2023-01-03T05:29:01.823Z,5
2023-01-03T05:30:01.448Z,4.9
2023-01-03T05:31:02.004Z,4.9
2023-01-03T05:32:01.615Z,4.9
2023-01-03T05:33:01.226Z,4.9
2023-01-03T05:34:01.827Z,4.9
2023-01-03T05:35:01.447Z,4.8
2023-01-03T05:36:01.995Z,4.8
2023-01-03T05:37:01.578Z,4.8
2023-01-03T05:38:01.193Z,4.8
2023-01-03T05:39:01.763Z,4.8
2023-01-03T05:40:01.464Z,4.7
2023-01-03T05:41:01.924Z,4.7
2023-01-03T05:42:01.538Z,4.7
2023-01-03T05:43:01.116Z,4.7
2023-01-03T05:44:01.691Z,4.7
2023-01-03T05:45:01.326Z,4.7
2023-01-03T05:46:01.914Z,4.8
2023-01-03T05:47:01.503Z,4.7
2023-01-03T05:48:01.107Z,4.7
2023-01-03T05:49:01.664Z,4.7
2023-01-03T05:50:01.271Z,4.7
2023-01-03T05:51:01.839Z,4.7
2023-01-03T05:52:01.440Z,4.7
2023-01-03T05:53:02.030Z,4.7
2023-01-03T05:54:01.622Z,4.6
2023-01-03T05:55:01.230Z,4.6
2023-01-03T05:56:01.794Z,4.6
2023-01-03T05:57:01.384Z,4.6
2023-01-03T05:58:01.958Z,4.6
2023-01-03T05:59:01.557Z,4.5
2023-01-03T06:00:01.159Z,4.5
2023-01-03T06:01:01.870Z,4.5
2023-01-03T06:02:01.491Z,4.5
2023-01-03T06:03:02.068Z,4.5
2023-01-03T06:04:01.705Z,4.4
2023-01-03T06:05:01.196Z,4.4
2023-01-03T06:06:01.804Z,4.4
2023-01-03T06:07:01.394Z,4.4
2023-01-03T06:08:02.018Z,4.4
2023-01-03T06:09:01.624Z,4.4
2023-01-03T06:10:01.213Z,4.4
2023-01-03T06:11:01.820Z,4.4
2023-01-03T06:12:01.460Z,4.4
2023-01-03T06:13:02.027Z,4.4
2023-01-03T06:14:01.632Z,4.4
2023-01-03T06:15:01.224Z,4.4
2023-01-03T06:16:01.833Z,4.4
2023-01-03T06:17:01.565Z,4.5
2023-01-03T06:18:02.014Z,4.5
2023-01-03T06:19:01.608Z,4.5
2023-01-03T06:20:01.202Z,4.5
2023-01-03T06:21:01.770Z,4.5
2023-01-03T06:22:04.390Z,4.6
2023-01-03T06:23:01.923Z,4.6
2023-01-03T06:24:01.510Z,4.5
2023-01-03T06:25:01.079Z,4.6
2023-01-03T06:26:01.653Z,4.4
2023-01-03T06:27:01.267Z,4.5
2023-01-03T06:28:01.844Z,4.4
2023-01-03T06:29:01.438Z,4.4
2023-01-03T06:30:02.026Z,4.5
2023-01-03T06:31:01.750Z,4.5
2023-01-03T06:32:06.987Z,4.6
2023-01-03T06:33:01.839Z,4.5
2023-01-03T06:34:01.471Z,4.6
2023-01-03T06:35:02.011Z,4.6
2023-01-03T06:36:01.614Z,4.6
2023-01-03T06:37:01.218Z,4.6
2023-01-03T06:38:01.812Z,4.7
2023-01-03T06:39:01.409Z,4.7
2023-01-03T06:40:01.074Z,4.8
2023-01-03T06:41:01.566Z,4.7
2023-01-03T06:42:01.158Z,4.7
2023-01-03T06:43:01.751Z,4.8
2023-01-03T06:44:01.340Z,4.8
2023-01-03T06:45:01.925Z,4.8
2023-01-03T06:46:01.587Z,4.7
2023-01-03T06:47:01.105Z,4.7
2023-01-03T06:48:01.708Z,4.6
2023-01-03T06:49:01.321Z,4.6
2023-01-03T06:50:01.940Z,4.6
2023-01-03T06:51:01.541Z,4.5
2023-01-03T06:52:01.113Z,4.6
2023-01-03T06:53:01.740Z,4.6
2023-01-03T06:54:01.333Z,4.5
2023-01-03T06:55:01.909Z,4.6
2023-01-03T06:56:01.495Z,4.5
2023-01-03T06:57:01.092Z,4.5
2023-01-03T06:58:01.689Z,4.6
2023-01-03T06:59:01.280Z,4.6
2023-01-03T07:00:01.862Z,4.5
2023-01-03T07:01:01.527Z,4.4
2023-01-03T07:02:02.568Z,4.4
2023-01-03T07:03:05.566Z,4.4
2023-01-03T07:04:01.908Z,4.5
2023-01-03T07:05:01.569Z,4.4
2023-01-03T07:06:01.179Z,4.4
2023-01-03T07:07:01.770Z,4.5
2023-01-03T07:08:01.379Z,4.5
2023-01-03T07:09:01.955Z,4.6
2023-01-03T07:10:01.550Z,4.7
2023-01-03T07:11:01.142Z,4.7
2023-01-03T07:12:01.721Z,4.8
2023-01-03T07:13:01.343Z,4.9
2023-01-03T07:14:01.896Z,4.9
2023-01-03T07:15:01.483Z,5
2023-01-03T07:16:01.108Z,5
2023-01-03T07:17:01.654Z,5.1
2023-01-03T07:18:01.266Z,5.2
2023-01-03T07:19:01.847Z,5.2
2023-01-03T07:20:01.441Z,5.1
2023-01-03T07:21:02.050Z,5.2
2023-01-03T07:22:01.638Z,5.3
2023-01-03T07:23:01.229Z,5.3
2023-01-03T07:24:01.933Z,5.3
2023-01-03T07:25:01.456Z,5.3
2023-01-03T07:26:02.041Z,5.4
2023-01-03T07:27:01.633Z,5.3
2023-01-03T07:28:05.909Z,5.3
2023-01-03T07:29:01.784Z,5.5
2023-01-03T07:30:01.383Z,5.5
2023-01-03T07:31:01.984Z,5.6
2023-01-03T07:32:01.586Z,5.5
2023-01-03T07:33:01.185Z,5.5
2023-01-03T07:34:01.768Z,5.5
2023-01-03T07:35:01.361Z,5.5
2023-01-03T07:36:06.078Z,5.5
2023-01-03T07:37:01.583Z,5.5
2023-01-03T07:38:01.180Z,5.5
2023-01-03T07:39:01.743Z,5.6
2023-01-03T07:40:01.366Z,5.6
2023-01-03T07:41:02.002Z,5.6
2023-01-03T07:42:01.598Z,5.5
2023-01-03T07:43:01.166Z,5.5
2023-01-03T07:44:01.736Z,5.5
2023-01-03T07:45:01.330Z,5.5
2023-01-03T07:46:01.969Z,5.6
2023-01-03T07:47:01.567Z,5.5
2023-01-03T07:48:01.123Z,5.5
2023-01-03T07:49:04.132Z,5.6
2023-01-03T07:50:01.237Z,5.6
2023-01-03T07:51:01.838Z,5.6
2023-01-03T07:52:01.449Z,5.6
2023-01-03T07:53:02.026Z,5.7
2023-01-03T07:54:01.656Z,5.7
2023-01-03T07:55:01.253Z,5.7
2023-01-03T07:56:01.809Z,5.8
2023-01-03T07:57:01.404Z,5.7
2023-01-03T07:58:01.972Z,5.8
2023-01-03T07:59:01.579Z,5.8
2023-01-03T08:00:01.131Z,5.7
2023-01-03T08:01:01.717Z,5.7
2023-01-03T08:02:01.469Z,5.7
2023-01-03T08:03:01.980Z,5.7
2023-01-03T08:04:01.554Z,5.7
2023-01-03T08:05:01.150Z,5.6
2023-01-03T08:06:01.706Z,5.6
2023-01-03T08:07:01.302Z,5.7
2023-01-03T08:08:01.882Z,5.6
2023-01-03T08:09:05.989Z,5.6
2023-01-03T08:10:02.051Z,5.6
2023-01-03T08:11:01.636Z,5.6
2023-01-03T08:12:01.223Z,5.6
2023-01-03T08:13:01.819Z,5.6
2023-01-03T08:14:01.434Z,5.7
2023-01-03T08:15:01.999Z,5.7
2023-01-03T08:16:01.720Z,5.7
2023-01-03T08:17:01.166Z,5.7
2023-01-03T08:18:01.764Z,5.8
2023-01-03T08:19:01.407Z,5.8
2023-01-03T08:20:02.031Z,5.8
2023-01-03T08:21:01.619Z,5.8
2023-01-03T08:22:01.217Z,5.8
2023-01-03T08:23:01.774Z,5.8
2023-01-03T08:24:01.368Z,5.8
2023-01-03T08:25:01.991Z,5.9
2023-01-03T08:26:01.582Z,5.8
2023-01-03T08:27:01.173Z,5.9
2023-01-03T08:28:01.735Z,5.9
2023-01-03T08:29:01.332Z,6
2023-01-03T08:30:01.941Z,6
2023-01-03T08:31:01.608Z,6.1
2023-01-03T08:32:01.212Z,6.1
2023-01-03T08:33:01.716Z,6.1
2023-01-03T08:34:01.306Z,6.2
2023-01-03T08:35:01.875Z,6.2
2023-01-03T08:36:01.467Z,6.3
2023-01-03T08:37:02.266Z,6.3
2023-01-03T08:38:01.916Z,6.4
2023-01-03T08:39:01.301Z,6.4
2023-01-03T08:40:01.889Z,6.5
2023-01-03T08:41:01.503Z,6.6
2023-01-03T08:42:01.167Z,6.6
2023-01-03T08:43:01.673Z,6.7
2023-01-03T08:44:01.268Z,6.8
2023-01-03T08:45:01.852Z,6.8
2023-01-03T08:46:01.454Z,6.9
2023-01-03T08:47:02.142Z,7
2023-01-03T08:48:01.749Z,7.1
2023-01-03T08:49:01.284Z,7.1
2023-01-03T08:50:01.868Z,7.2
2023-01-03T08:51:01.459Z,7.2
2023-01-03T08:52:02.063Z,7.2
2023-01-03T08:53:01.651Z,7.2
2023-01-03T08:54:01.260Z,7.3
2023-01-03T08:55:01.824Z,7.3
2023-01-03T08:56:01.421Z,7.3
2023-01-03T08:57:02.062Z,7.3
2023-01-03T08:58:01.649Z,7.3
2023-01-03T08:59:01.269Z,7.4
2023-01-03T09:00:01.849Z,7.4
2023-01-03T09:01:01.465Z,7.4
2023-01-03T09:02:02.258Z,7.4
2023-01-03T09:03:02.199Z,7.5
2023-01-03T09:04:02.001Z,7.5
2023-01-03T09:05:01.621Z,7.5
2023-01-03T09:06:01.237Z,7.5
2023-01-03T09:07:01.809Z,7.5
2023-01-03T09:08:01.398Z,7.6
2023-01-03T09:09:02.007Z,7.7
2023-01-03T09:10:01.597Z,7.7
2023-01-03T09:11:01.196Z,7.7
2023-01-03T09:12:01.771Z,7.7
2023-01-03T09:13:01.382Z,7.7
2023-01-03T09:14:02.000Z,7.7
2023-01-03T09:15:01.598Z,7.8
2023-01-03T09:16:01.232Z,7.7
2023-01-03T09:17:01.762Z,7.8
2023-01-03T09:18:01.406Z,7.8
2023-01-03T09:19:01.996Z,7.9
2023-01-03T09:20:01.637Z,7.8
2023-01-03T09:21:01.179Z,7.8
2023-01-03T09:22:01.773Z,7.9
2023-01-03T09:23:01.369Z,7.8
2023-01-03T09:24:01.958Z,7.8
2023-01-03T09:25:01.580Z,7.8
2023-01-03T09:26:01.147Z,7.8
2023-01-03T09:27:01.748Z,7.7
2023-01-03T09:28:01.362Z,7.7
2023-01-03T09:29:01.975Z,7.6
2023-01-03T09:30:01.594Z,7.6
2023-01-03T09:31:01.264Z,7.6
2023-01-03T09:32:01.761Z,7.6
2023-01-03T09:33:01.406Z,7.6
2023-01-03T09:34:01.982Z,7.7
2023-01-03T09:35:01.591Z,7.8
2023-01-03T09:36:01.151Z,7.8
2023-01-03T09:37:01.736Z,7.8
2023-01-03T09:38:01.342Z,7.8
2023-01-03T09:39:01.939Z,7.8
2023-01-03T09:40:01.527Z,7.8
2023-01-03T09:41:01.130Z,7.9
2023-01-03T09:42:01.768Z,7.9
2023-01-03T09:43:01.334Z,8
2023-01-03T09:44:01.943Z,8
2023-01-03T09:45:01.559Z,8.1
2023-01-03T09:46:01.116Z,8.2
2023-01-03T09:47:01.736Z,8.2
2023-01-03T09:48:01.339Z,8.3
2023-01-03T09:49:01.923Z,8.3
2023-01-03T09:51:30.741Z,8.4
2023-01-03T09:52:01.627Z,8.5
2023-01-03T09:53:01.227Z,8.5
2023-01-03T09:54:01.817Z,8.5
2023-01-03T09:55:01.431Z,8.5
2023-01-03T09:56:02.001Z,8.5
2023-01-03T09:57:01.619Z,8.5
2023-01-03T09:58:01.181Z,8.5
2023-01-03T09:59:01.749Z,8.5
2023-01-03T10:00:01.365Z,8.5
2023-01-03T10:01:01.991Z,8.6
2023-01-03T10:02:01.849Z,8.6
2023-01-03T10:03:01.247Z,8.6
2023-01-03T10:04:01.749Z,8.7
2023-01-03T10:05:01.360Z,8.6
2023-01-03T10:06:01.929Z,8.6
2023-01-03T10:07:01.519Z,8.7
2023-01-03T10:08:01.104Z,8.8
2023-01-03T10:09:01.698Z,8.8
2023-01-03T10:10:01.376Z,8.9
2023-01-03T10:11:01.924Z,8.9
2023-01-03T10:12:01.516Z,8.9
2023-01-03T10:13:01.098Z,9
2023-01-03T10:14:01.694Z,9
2023-01-03T10:15:01.303Z,9.1
2023-01-03T10:16:01.922Z,9.3
2023-01-03T10:17:01.610Z,9.3
2023-01-03T10:18:01.124Z,9.4
2023-01-03T10:19:01.694Z,9.3
2023-01-03T10:20:01.292Z,9.4
2023-01-03T10:21:01.876Z,9.4
2023-01-03T10:22:01.471Z,9.4
2023-01-03T10:23:02.059Z,9.4
2023-01-03T10:24:01.651Z,9.4
2023-01-03T10:25:01.252Z,9.2
2023-01-03T10:26:01.839Z,9.1
2023-01-03T10:27:01.430Z,9.1
2023-01-03T10:28:02.017Z,9.1
2023-01-03T10:29:01.635Z,9.1
2023-01-03T10:30:01.270Z,9.1
2023-01-03T10:31:07.518Z,9.1
2023-01-03T10:32:01.477Z,9.1
2023-01-03T10:33:02.131Z,9.1
2023-01-03T10:34:01.723Z,9.2
2023-01-03T10:35:01.292Z,9.1
2023-01-03T10:36:01.884Z,9.2
2023-01-03T10:37:01.481Z,9.3
2023-01-03T10:38:02.082Z,9.3
2023-01-03T10:39:01.670Z,9.3
2023-01-03T10:40:01.265Z,9.4
2023-01-03T10:41:01.869Z,9.4
2023-01-03T10:42:01.480Z,9.4
2023-01-03T10:43:01.170Z,9.4
2023-01-03T10:44:01.651Z,9.4
2023-01-03T10:45:01.287Z,9.4
2023-01-03T10:46:01.904Z,9.3
2023-01-03T10:47:01.484Z,9.4
2023-01-03T10:48:02.075Z,9.4
2023-01-03T10:49:27.032Z,9.4
2023-01-03T10:50:01.229Z,9.4
2023-01-03T10:51:01.845Z,9.5
2023-01-03T10:52:01.437Z,9.5
2023-01-03T10:53:02.025Z,9.6
2023-01-03T10:54:01.646Z,9.7
2023-01-03T10:55:01.252Z,9.8
2023-01-03T10:56:01.844Z,9.8
2023-01-03T10:57:01.446Z,9.8
2023-01-03T10:58:02.026Z,9.7
2023-01-03T10:59:01.638Z,9.8
2023-01-03T11:00:01.226Z,9.8
2023-01-03T11:01:01.894Z,9.8
2023-01-03T11:02:01.692Z,9.8
2023-01-03T11:03:02.191Z,9.8
2023-01-03T11:04:02.005Z,9.8
2023-01-03T11:05:01.299Z,9.8
2023-01-03T11:06:01.901Z,9.8
2023-01-03T11:07:01.502Z,9.9
2023-01-03T11:08:01.075Z,9.9
2023-01-03T11:09:01.657Z,9.9
2023-01-03T11:10:01.243Z,9.8
2023-01-03T11:11:02.380Z,10
2023-01-03T11:12:01.490Z,10
2023-01-03T11:13:01.079Z,9.9
2023-01-03T11:14:01.661Z,9.8
2023-01-03T11:15:01.276Z,9.9
2023-01-03T11:16:01.847Z,10
2023-01-03T11:17:01.523Z,10
2023-01-03T11:18:02.093Z,10
2023-01-03T11:19:01.700Z,10
2023-01-03T11:20:01.298Z,10.1
2023-01-03T11:21:01.899Z,10.1
2023-01-03T11:22:01.497Z,10.1
2023-01-03T11:23:02.091Z,10.1
2023-01-03T11:24:01.700Z,9.8
2023-01-03T11:25:01.314Z,9.8
2023-01-03T11:26:01.889Z,9.8
2023-01-03T11:27:01.482Z,9.8
2023-01-03T11:28:02.090Z,9.8
2023-01-03T11:29:01.679Z,9.9
2023-01-03T11:30:01.283Z,9.9
2023-01-03T11:31:01.864Z,9.8
2023-01-03T11:32:01.493Z,9.8
2023-01-03T11:33:02.076Z,9.6
2023-01-03T11:34:01.670Z,9.6
2023-01-03T11:35:31.194Z,9.7
2023-01-03T11:36:01.812Z,9.7
2023-01-03T11:37:01.437Z,9.8
2023-01-03T11:38:02.005Z,9.8
2023-01-03T11:39:01.613Z,9.7
2023-01-03T11:40:01.205Z,9.8
2023-01-03T11:41:01.792Z,9.7
2023-01-03T11:42:01.385Z,9.6
2023-01-03T11:43:01.959Z,9.5
2023-01-03T11:44:01.680Z,9.6
2023-01-03T11:45:01.163Z,9.5
2023-01-03T11:46:01.818Z,9.5
2023-01-03T11:47:01.397Z,9.4
2023-01-03T11:48:01.988Z,9.4
2023-01-03T11:49:01.624Z,9.6
2023-01-03T11:50:01.182Z,9.6
2023-01-03T11:51:01.770Z,9.6
2023-01-03T11:52:01.365Z,9.7
2023-01-03T11:53:01.976Z,9.7
2023-01-03T11:54:01.601Z,9.6
2023-01-03T11:55:01.163Z,9.5
2023-01-03T11:56:01.724Z,9.4
2023-01-03T11:57:01.317Z,9.4
2023-01-03T11:58:01.919Z,9.3
2023-01-03T11:59:01.509Z,9.4
2023-01-03T12:00:01.132Z,9.4
2023-01-03T12:01:01.673Z,9.5
2023-01-03T12:02:01.364Z,9.4
2023-01-03T12:03:01.944Z,9.4
2023-01-03T12:04:01.587Z,9.4
2023-01-03T12:05:01.359Z,9.3
2023-01-03T12:06:01.710Z,9.4
2023-01-03T12:07:21.847Z,9.4
2023-01-03T12:08:01.842Z,9.3
2023-01-03T12:09:01.461Z,9.3
2023-01-03T12:10:02.042Z,9.2
2023-01-03T12:11:01.633Z,9.2
2023-01-03T12:12:01.219Z,9.2
2023-01-03T12:13:01.831Z,9.2
2023-01-03T12:14:01.418Z,9.2
2023-01-03T12:15:02.034Z,9.2
2023-01-03T12:16:01.742Z,9.1
2023-01-03T12:17:01.202Z,9.1
2023-01-03T12:18:01.772Z,9.2
2023-01-03T12:19:03.539Z,9.2
2023-01-03T12:20:01.954Z,9.3
2023-01-03T12:21:01.556Z,9.2
2023-01-03T12:22:01.142Z,9.2
2023-01-03T12:23:01.715Z,9.1
2023-01-03T12:24:01.310Z,9.1
2023-01-03T12:25:05.353Z,9.2
2023-01-03T12:26:01.457Z,9.2
2023-01-03T12:27:02.063Z,9.3
2023-01-03T12:28:01.684Z,9.2
2023-01-03T12:29:01.275Z,9.3
2023-01-03T12:30:01.897Z,9.3
2023-01-03T12:31:01.572Z,9.3
2023-01-03T12:32:02.145Z,9.3
2023-01-03T12:33:01.805Z,9.4
2023-01-03T12:34:01.318Z,9.6
2023-01-03T12:35:01.912Z,9.6
2023-01-03T12:36:01.518Z,9.6
2023-01-03T12:37:01.100Z,9.7
2023-01-03T12:38:01.672Z,9.8
2023-01-03T12:39:01.260Z,9.7
2023-01-03T12:40:01.851Z,9.6
2023-01-03T12:41:01.494Z,9.6
2023-01-03T12:42:02.056Z,9.6
2023-01-03T12:43:01.659Z,9.5
2023-01-03T12:44:01.610Z,9.6
2023-01-03T12:45:01.872Z,9.6
2023-01-03T12:46:04.605Z,9.6
2023-01-03T12:47:02.100Z,9.6
2023-01-03T12:48:01.724Z,9.6
2023-01-03T12:49:01.438Z,9.6
2023-01-03T12:50:01.859Z,9.6
2023-01-03T12:51:01.480Z,9.7
2023-01-03T12:52:02.035Z,9.8
2023-01-03T12:53:01.642Z,9.8
2023-01-03T12:54:01.233Z,9.8
2023-01-03T12:55:01.813Z,9.8
2023-01-03T12:56:01.457Z,9.8
2023-01-03T12:57:02.030Z,9.9
2023-01-03T12:58:01.655Z,10
2023-01-03T12:59:01.206Z,10
2023-01-03T13:00:01.794Z,10
2023-01-03T13:01:01.392Z,10
2023-01-03T13:02:02.107Z,9.9
2023-01-03T13:03:01.859Z,10
2023-01-03T13:04:01.240Z,10
2023-01-03T13:05:01.780Z,10.1
2023-01-03T13:06:01.370Z,10
2023-01-03T13:07:01.948Z,9.9
2023-01-03T13:08:01.609Z,9.8
2023-01-03T13:09:01.149Z,9.8
2023-01-03T13:10:01.899Z,9.8
2023-01-03T13:11:01.397Z,9.7
2023-01-03T13:12:01.976Z,9.8
2023-01-03T13:13:01.609Z,9.8
2023-01-03T13:14:01.141Z,9.8
2023-01-03T13:15:01.748Z,9.9
2023-01-03T13:16:01.395Z,10.1
2023-01-03T13:17:01.923Z,10
2023-01-03T13:18:01.512Z,10.1
2023-01-03T13:19:01.097Z,10.2
2023-01-03T13:20:01.696Z,10.2
2023-01-03T13:21:01.292Z,10.2
2023-01-03T13:22:01.874Z,10.3
2023-01-03T13:23:01.463Z,10.2
2023-01-03T13:24:02.065Z,10.2
2023-01-03T13:25:01.656Z,10.1
2023-01-03T13:26:01.244Z,10
2023-01-03T13:27:01.849Z,10
2023-01-03T13:28:01.438Z,10
2023-01-03T13:29:02.056Z,10
2023-01-03T13:30:01.697Z,10
2023-01-03T13:31:01.306Z,10
2023-01-03T13:32:01.837Z,10
2023-01-03T13:33:01.429Z,10
2023-01-03T13:34:02.040Z,10
2023-01-03T13:35:01.631Z,10
2023-01-03T13:36:01.226Z,9.9
2023-01-03T13:37:01.794Z,10
2023-01-03T13:38:01.384Z,10
2023-01-03T13:39:01.979Z,10
2023-01-03T13:40:01.575Z,9.9
2023-01-03T13:41:17.471Z,10
2023-01-03T13:42:01.713Z,10.1
2023-01-03T13:43:01.305Z,10.1
2023-01-03T13:44:01.916Z,10.2
2023-01-03T13:45:01.630Z,10.2
2023-01-03T13:46:01.184Z,10.3
2023-01-03T13:47:01.709Z,10.2
2023-01-03T13:48:01.310Z,10.2
2023-01-03T13:49:01.955Z,10.3
2023-01-03T13:50:01.527Z,10.2